Time;durP1;ratioP1;P1;durP2;ratioP2;P2;SDS_P1;SDS_P2;PMS_P1;PMS_P2;Temp;Humidity;BMP_temperature;BMP_pressure;BME280_temperature;BME280_humidity;BME280_pressure;Samples;Min_cycle;Max_cycle;Signal;HPM_P1;HPM_P2
2023/10/05 00:02:56;;;;;;;1.70;1.20;;;;;;;12.15;98.42;102235.50;5054602;28;20063;-80
2023/10/05 00:05:26;;;;;;;2.67;1.30;;;;;;;12.16;97.86;102234.59;5053627;28;20037;-79
2023/10/05 00:07:51;;;;;;;1.60;1.50;;;;;;;12.17;98.38;102235.47;5054498;28;20025;-79
2023/10/05 00:10:17;;;;;;;3.57;1.67;;;;;;;12.17;98.31;102238.09;5054037;28;20047;-79
2023/10/05 00:12:47;;;;;;;2.40;1.50;;;;;;;12.18;98.86;102240.69;5053651;28;20036;-79
2023/10/05 00:15:15;;;;;;;3.65;1.70;;;;;;;12.17;98.95;102245.91;5054005;28;20096;-79
2023/10/05 00:17:43;;;;;;;2.85;1.90;;;;;;;12.13;99.43;102255.44;5054394;28;20101;-79
2023/10/05 00:20:55;;;;;;;3.08;1.80;;;;;;;12.13;99.95;102249.34;5053501;28;20016;-79
2023/10/05 00:23:00;;;;;;;2.75;1.80;;;;;;;12.14;99.08;102264.97;5043296;28;20059;-79
2023/10/05 00:25:28;;;;;;;3.78;1.80;;;;;;;12.11;99.54;102264.97;5053743;28;20055;-80
2023/10/05 00:27:55;;;;;;;3.72;1.75;;;;;;;12.13;99.67;102268.44;5053381;28;20477;-79
2023/10/05 00:30:21;;;;;;;2.28;1.65;;;;;;;12.12;99.40;102261.50;5054032;28;20505;-79
2023/10/05 00:32:59;;;;;;;2.95;1.60;;;;;;;12.12;99.54;102260.63;5054158;28;20516;-80
2023/10/05 00:35:26;;;;;;;6.95;2.10;;;;;;;12.06;99.69;102266.69;5052926;28;20409;-80
2023/10/05 00:37:52;;;;;;;3.05;1.83;;;;;;;12.07;99.44;102273.63;5053975;28;20025;-79
2023/10/05 00:40:38;;;;;;;3.37;1.77;;;;;;;12.10;99.51;102284.06;5051865;28;20094;-80
2023/10/05 00:43:28;;;;;;;2.92;1.70;;;;;;;12.11;99.89;102277.09;5053849;28;20025;-79
2023/10/05 00:45:56;;;;;;;2.47;1.70;;;;;;;12.08;99.66;102272.75;5052804;28;20064;-79
2023/10/05 00:48:40;;;;;;;2.28;1.58;;;;;;;12.08;99.61;102274.50;5052712;28;20163;-79
2023/10/05 00:51:12;;;;;;;3.67;1.55;;;;;;;12.03;100.00;102277.97;5053436;28;20466;-80
2023/10/05 00:53:47;;;;;;;3.05;1.70;;;;;;;12.07;99.75;102281.44;5053599;28;20070;-80
2023/10/05 00:56:12;;;;;;;2.83;1.70;;;;;;;12.05;100.00;102278.84;5051894;28;20033;-79
2023/10/05 00:58:42;;;;;;;1.70;1.60;;;;;;;12.01;99.73;102271.03;5053376;28;20044;-79
2023/10/05 01:01:15;;;;;;;1.63;1.30;;;;;;;12.05;99.47;102283.16;5053131;28;20029;-79
2023/10/05 01:06:48;;;;;;;1.08;1.00;;;;;;;12.03;99.36;102279.72;5053348;28;20413;-79
2023/10/05 01:09:32;;;;;;;1.70;1.50;;;;;;;12.01;99.96;102284.03;5052079;28;20025;-79
2023/10/05 01:15:05;;;;;;;1.83;1.35;;;;;;;12.02;99.69;102283.19;5053228;28;20477;-79
2023/10/05 01:17:30;;;;;;;1.60;1.45;;;;;;;12.02;99.74;102277.97;5052605;28;20075;-79
2023/10/05 01:20:06;;;;;;;4.53;1.60;;;;;;;11.98;100.00;102274.50;5052742;28;20052;-79
2023/10/05 01:22:39;;;;;;;2.45;1.50;;;;;;;11.99;99.87;102271.00;5052446;28;20040;-79
2023/10/05 01:25:05;;;;;;;2.72;1.45;;;;;;;12.00;100.00;102274.50;5052747;28;20119;-79
2023/10/05 01:27:32;;;;;;;2.00;1.48;;;;;;;11.98;100.00;102273.63;5053042;28;20064;-80
2023/10/05 01:29:57;;;;;;;1.60;1.40;;;;;;;11.99;100.00;102267.56;5052190;28;20095;-79
2023/10/05 01:32:23;;;;;;;2.10;1.57;;;;;;;11.97;100.00;102262.31;5052802;28;20481;-79
2023/10/05 01:34:57;;;;;;;1.00;1.00;;;;;;;11.99;100.00;102268.41;5052924;28;20453;-80
2023/10/05 01:37:23;;;;;;;2.78;1.48;;;;;;;11.99;100.00;102277.97;5051733;28;20388;-79
2023/10/05 01:39:52;;;;;;;3.50;1.47;;;;;;;11.93;100.00;102263.19;5052981;28;20024;-79
2023/10/05 01:42:17;;;;;;;2.13;1.45;;;;;;;11.95;100.00;102268.38;5052399;28;20020;-80
2023/10/05 01:44:49;;;;;;;3.00;1.47;;;;;;;11.96;100.00;102276.19;5051881;28;20458;-80
2023/10/05 01:47:15;;;;;;;1.67;1.25;;;;;;;11.90;100.00;102264.03;5052111;28;20036;-80
2023/10/05 01:49:42;;;;;;;1.92;1.50;;;;;;;11.95;100.00;102261.44;5052898;28;20040;-80
2023/10/05 01:52:08;;;;;;;1.80;1.27;;;;;;;11.93;100.00;102263.19;5051682;28;20029;-79
2023/10/05 01:54:34;;;;;;;3.97;1.70;;;;;;;11.90;100.00;102255.34;5052476;28;20029;-80
2023/10/05 01:57:07;;;;;;;5.15;1.63;;;;;;;11.92;100.00;102260.59;5051561;28;20100;-79
2023/10/05 01:59:37;;;;;;;2.80;1.73;;;;;;;11.92;100.00;102252.78;5051654;28;20128;-79
2023/10/05 02:02:10;;;;;;;2.63;1.58;;;;;;;11.93;100.00;102251.91;5052185;28;20055;-79
2023/10/05 02:04:44;;;;;;;1.83;1.35;;;;;;;11.92;100.00;102250.19;5051833;28;20021;-79
2023/10/05 02:07:11;;;;;;;1.45;1.20;;;;;;;11.94;100.00;102261.44;5052386;28;20079;-79
2023/10/05 02:09:38;;;;;;;1.85;1.23;;;;;;;11.94;100.00;102256.22;5052476;28;20021;-79
2023/10/05 02:12:06;;;;;;;2.38;1.63;;;;;;;11.92;100.00;102260.59;5051254;28;20549;-79
2023/10/05 02:14:32;;;;;;;2.80;1.50;;;;;;;11.89;100.00;102257.09;5052449;28;20029;-79
2023/10/05 02:16:58;;;;;;;2.65;1.50;;;;;;;11.86;100.00;102246.69;5052606;28;20033;-79
2023/10/05 02:19:23;;;;;;;3.60;1.40;;;;;;;11.84;100.00;102238.00;5051270;28;20369;-79
2023/10/05 02:21:53;;;;;;;2.63;1.70;;;;;;;11.86;100.00;102246.69;5052400;28;20032;-79
2023/10/05 02:24:19;;;;;;;3.15;1.50;;;;;;;11.84;100.00;102242.34;5051960;28;20040;-79
2023/10/05 02:29:29;;;;;;;5.82;2.30;;;;;;;11.80;100.00;102246.69;5052231;28;20111;-78
2023/10/05 02:34:33;;;;;;;2.00;1.60;;;;;;;11.77;100.00;102251.00;5051205;28;20036;-79
2023/10/05 02:37:00;;;;;;;2.50;1.70;;;;;;;11.77;100.00;102248.38;5052203;28;20036;-79
2023/10/05 02:39:25;;;;;;;1.60;1.50;;;;;;;11.76;100.00;102239.72;5051771;28;20049;-79
2023/10/05 02:41:51;;;;;;;3.07;1.90;;;;;;;11.73;100.00;102229.31;5051412;28;20059;-79
2023/10/05 02:44:27;;;;;;;2.10;1.40;;;;;;;11.71;100.00;102229.31;5051763;28;20355;-80
2023/10/05 02:46:52;;;;;;;6.38;2.13;;;;;;;11.66;100.00;102220.63;5051479;28;20025;-79
2023/10/05 02:49:19;;;;;;;3.83;1.80;;;;;;;11.64;100.00;102217.19;5051972;28;20029;-80
2023/10/05 02:51:46;;;;;;;5.68;2.03;;;;;;;11.64;100.00;102213.69;5052245;28;20056;-80
2023/10/05 02:54:12;;;;;;;1.70;1.60;;;;;;;11.64;100.00;102218.91;5051094;28;20036;-79
2023/10/05 02:56:41;;;;;;;3.22;1.45;;;;;;;11.61;100.00;102224.06;5051758;28;20100;-79
2023/10/05 02:59:08;;;;;;;3.15;1.77;;;;;;;11.58;100.00;102219.75;5051455;28;20041;-79
2023/10/05 03:01:37;;;;;;;2.65;1.60;;;;;;;11.56;100.00;102226.66;5051019;28;20052;-79
2023/10/05 03:04:09;;;;;;;2.28;1.50;;;;;;;11.53;100.00;102222.34;5051365;28;20060;-79
2023/10/05 03:06:35;;;;;;;2.10;1.50;;;;;;;11.53;100.00;102224.94;5052010;28;20458;-79
2023/10/05 03:09:07;;;;;;;1.48;1.38;;;;;;;11.55;100.00;102233.63;5053000;28;20060;-79
2023/10/05 03:11:46;;;;;;;1.50;1.40;;;;;;;11.55;100.00;102230.13;5055863;28;20397;-79
2023/10/05 03:14:16;;;;;;;2.80;1.63;;;;;;;11.52;100.00;102224.94;5055323;28;20474;-79
2023/10/05 03:16:44;;;;;;;3.92;1.80;;;;;;;11.51;100.00;102220.59;5055053;28;20071;-79
2023/10/05 03:19:14;;;;;;;2.88;1.60;;;;;;;11.52;100.00;102219.75;5055377;28;20100;-79
2023/10/05 03:21:40;;;;;;;2.38;1.65;;;;;;;11.52;100.00;102217.16;5055390;28;20017;-78
2023/10/05 03:24:13;;;;;;;2.05;1.50;;;;;;;11.53;100.00;102217.13;5054499;28;20076;-79
2023/10/05 03:26:39;;;;;;;3.05;1.85;;;;;;;11.50;100.00;102204.13;5055476;28;20096;-79
2023/10/05 03:29:04;;;;;;;3.20;2.00;;;;;;;11.50;100.00;102211.91;5054272;28;20432;-79
2023/10/05 03:31:37;;;;;;;2.87;1.70;;;;;;;11.49;100.00;102214.53;5055406;28;20493;-79
2023/10/05 03:34:05;;;;;;;2.50;1.60;;;;;;;11.47;100.00;102208.44;5055131;28;20380;-79
2023/10/05 03:36:33;;;;;;;2.03;1.50;;;;;;;11.47;100.00;102214.53;5054310;28;20068;-80
2023/10/05 03:39:02;;;;;;;3.30;1.80;;;;;;;11.46;100.00;102215.41;5055143;28;20504;-79
2023/10/05 03:41:28;;;;;;;2.55;1.70;;;;;;;11.47;100.00;102216.25;5055117;28;20017;-79
2023/10/05 03:43:55;;;;;;;2.33;1.70;;;;;;;11.46;100.00;102212.78;5054591;28;20531;-79
2023/10/05 03:46:24;;;;;;;1.98;1.70;;;;;;;11.43;100.00;102212.78;5054740;28;20033;-79
2023/10/05 03:48:50;;;;;;;2.45;1.70;;;;;;;11.44;100.00;102210.16;5054802;28;20553;-79
2023/10/05 03:51:15;;;;;;;2.53;1.57;;;;;;;11.46;100.00;102218.00;5053849;28;20112;-80
2023/10/05 03:53:48;;;;;;;2.10;1.70;;;;;;;11.43;100.00;102215.38;5054719;28;20029;-79
2023/10/05 03:56:26;;;;;;;1.60;1.50;;;;;;;11.46;100.00;102220.59;5054620;28;20056;-78
2023/10/05 03:58:54;;;;;;;2.30;1.48;;;;;;;11.43;100.00;102217.97;5053653;28;20049;-79
2023/10/05 04:01:22;;;;;;;3.58;1.70;;;;;;;11.41;100.00;102211.91;5054537;28;20436;-79
2023/10/05 04:03:48;;;;;;;3.50;1.75;;;;;;;11.40;100.00;102211.03;5054493;28;20028;-79
2023/10/05 04:06:17;;;;;;;2.78;1.33;;;;;;;11.39;100.00;102217.09;5053462;28;20075;-79
2023/10/05 04:08:50;;;;;;;2.13;1.55;;;;;;;11.39;100.00;102222.31;5054570;28;20092;-80
2023/10/05 04:11:17;;;;;;;2.08;1.23;;;;;;;11.40;100.00;102216.25;5053658;28;20112;-79
2023/10/05 04:13:51;;;;;;;;;;;;;;;11.38;100.00;102220.56;5055047;28;20417;-79
2023/10/05 04:16:38;;;;;;;3.03;1.60;;;;;;;11.36;100.00;102222.28;5054117;28;19913;-79
2023/10/05 04:19:04;;;;;;;3.03;1.50;;;;;;;11.33;100.00;102224.88;5052849;28;20056;-80
2023/10/05 04:21:30;;;;;;;4.82;1.90;;;;;;;11.33;100.00;102227.47;5053569;28;20416;-79
2023/10/05 04:23:59;;;;;;;3.42;2.03;;;;;;;11.30;100.00;102218.78;5054036;28;20024;-79
2023/10/05 04:26:37;;;;;;;2.38;1.50;;;;;;;11.33;100.00;102227.47;5053200;28;20082;-79
2023/10/05 04:29:09;;;;;;;2.80;1.40;;;;;;;11.31;100.00;102221.41;5054070;28;20078;-79
2023/10/05 04:31:36;;;;;;;2.33;1.33;;;;;;;11.30;100.00;102222.28;5053459;28;20116;-79
2023/10/05 04:34:05;;;;;;;2.92;1.60;;;;;;;11.26;100.00;102218.78;5053151;28;20033;-79
2023/10/05 04:36:31;;;;;;;1.85;1.50;;;;;;;11.24;100.00;102217.03;5053963;28;20021;-79
2023/10/05 04:38:56;;;;;;;1.52;1.42;;;;;;;11.22;100.00;102222.25;5054109;28;20116;-79
2023/10/05 04:41:28;;;;;;;1.70;1.37;;;;;;;11.18;100.00;102219.63;5053027;28;20112;-79
2023/10/05 04:43:55;;;;;;;2.42;1.30;;;;;;;11.19;100.00;102230.00;5053482;28;20020;-78
2023/10/05 04:46:23;;;;;;;1.30;1.20;;;;;;;11.16;100.00;102227.41;5052370;28;20536;-79
2023/10/05 04:51:36;;;;;;;2.15;1.50;;;;;;;11.15;100.00;102230.00;5053988;28;20063;-79
2023/10/05 04:54:01;;;;;;;1.67;1.58;;;;;;;11.11;100.00;102218.72;5053000;28;20033;-79
2023/10/05 04:56:40;;;;;;;2.23;1.30;;;;;;;11.10;100.00;102223.03;5053047;28;20024;-79
2023/10/05 05:01:57;;;;;;;2.78;1.60;;;;;;;11.09;100.00;102217.84;5052702;28;20110;-79
2023/10/05 05:04:52;;;;;;;1.48;1.20;;;;;;;11.11;100.00;102216.13;5052393;28;20047;-79
2023/10/05 05:07:21;;;;;;;2.40;1.60;;;;;;;11.10;100.00;102223.03;5053384;28;20021;-79
2023/10/05 05:09:50;;;;;;;1.50;1.40;;;;;;;11.09;100.00;102216.09;5053220;28;20090;-79
2023/10/05 05:12:20;;;;;;;2.63;1.30;;;;;;;11.09;100.00;102215.25;5052867;28;20017;-79
2023/10/05 05:14:52;;;;;;;1.35;1.23;;;;;;;11.10;100.00;102220.44;5051983;28;20040;-79
2023/10/05 05:17:22;;;;;;;1.25;1.15;;;;;;;11.09;100.00;102221.28;5052848;28;20025;-79
2023/10/05 05:19:48;;;;;;;0.90;0.90;;;;;;;11.11;100.00;102227.38;5053247;28;20123;-79
2023/10/05 05:22:13;;;;;;;1.00;1.00;;;;;;;11.08;100.00;102229.09;5052201;28;20104;-79
2023/10/05 05:24:39;;;;;;;1.33;1.20;;;;;;;11.12;100.00;102225.66;5053204;28;20112;-79
2023/10/05 05:29:44;;;;;;;2.53;1.30;;;;;;;11.13;100.00;102237.78;5052331;28;20040;-79
2023/10/05 05:32:13;;;;;;;4.03;1.63;;;;;;;11.12;100.00;102239.50;5052950;28;20017;-79
2023/10/05 05:34:41;;;;;;;1.33;1.23;;;;;;;11.14;100.00;102239.53;5053292;28;20079;-79
2023/10/05 05:37:08;;;;;;;1.95;1.33;;;;;;;11.14;100.00;102234.34;5051987;28;20051;-79
2023/10/05 05:39:39;;;;;;;;;;;;;;;11.17;100.00;102241.28;5053490;28;20432;-79
2023/10/05 05:42:06;;;;;;;1.20;1.10;;;;;;;11.16;100.00;102240.38;5052247;28;19996;-79
2023/10/05 05:44:34;;;;;;;1.17;1.08;;;;;;;11.17;100.00;102239.53;5051912;28;20435;-79
2023/10/05 05:47:14;;;;;;;1.77;1.60;;;;;;;11.19;100.00;102245.59;5052781;28;20474;-79
2023/10/05 05:49:45;;;;;;;2.13;1.70;;;;;;;11.17;100.00;102244.72;5051913;28;20456;-79
2023/10/05 05:52:11;;;;;;;2.95;1.63;;;;;;;11.22;100.00;102253.44;5052581;28;20025;-79
2023/10/05 05:54:38;;;;;;;2.58;1.80;;;;;;;11.19;100.00;102253.41;5052666;28;20380;-79
2023/10/05 05:57:06;;;;;;;1.70;1.35;;;;;;;11.22;100.00;102247.34;5051798;28;20052;-77
2023/10/05 05:59:34;;;;;;;1.52;1.42;;;;;;;11.27;100.00;102258.63;5052017;28;20424;-77
2023/10/05 06:02:04;;;;;;;1.98;1.27;;;;;;;11.27;100.00;102249.09;5052293;28;20029;-77
2023/10/05 06:04:32;;;;;;;1.38;1.25;;;;;;;11.32;100.00;102240.47;5051729;28;20155;-78
2023/10/05 06:07:02;;;;;;;1.52;1.40;;;;;;;11.36;100.00;102253.47;5052619;28;20088;-77
2023/10/05 06:09:33;;;;;;;3.97;1.48;;;;;;;11.37;100.00;102246.56;5052509;28;20025;-77
2023/10/05 06:11:59;;;;;;;2.10;1.70;;;;;;;11.38;100.00;102250.88;5052117;28;20028;-77
2023/10/05 06:14:25;;;;;;;2.28;1.30;;;;;;;11.41;100.00;102259.56;5052499;28;20029;-77
2023/10/05 06:16:52;;;;;;;2.10;1.43;;;;;;;11.42;100.00;102257.84;5052672;28;20032;-77
2023/10/05 06:19:18;;;;;;;1.55;1.10;;;;;;;11.49;100.00;102263.94;5051344;28;20375;-77
2023/10/05 06:21:43;;;;;;;1.67;1.30;;;;;;;11.50;100.00;102263.91;5052323;28;20025;-77
2023/10/05 06:24:11;;;;;;;1.47;1.33;;;;;;;11.53;100.00;102266.53;5052201;28;20036;-77
2023/10/05 06:26:38;;;;;;;1.70;1.35;;;;;;;11.56;100.00;102271.75;5051517;28;20112;-77
2023/10/05 06:29:08;;;;;;;1.23;1.13;;;;;;;11.58;100.00;102277.84;5051812;28;20484;-78
2023/10/05 06:31:34;;;;;;;1.52;1.05;;;;;;;11.59;100.00;102273.50;5052582;28;20027;-78
2023/10/05 06:33:59;;;;;;;1.20;1.10;;;;;;;11.65;100.00;102275.25;5045092;28;20028;-77
2023/10/05 06:36:25;;;;;;;1.80;1.00;;;;;;;11.65;100.00;102272.63;5041868;28;20051;-77
2023/10/05 06:38:53;;;;;;;1.83;1.03;;;;;;;11.71;100.00;102288.25;5045687;28;20382;-78
2023/10/05 06:41:21;;;;;;;0.75;0.70;;;;;;;11.73;100.00;102284.81;5052079;28;20111;-78
2023/10/05 06:43:48;;;;;;;0.75;0.75;;;;;;;11.78;100.00;102289.16;5053767;28;20108;-78
2023/10/05 06:46:20;;;;;;;2.67;1.10;;;;;;;11.80;100.00;102282.22;5055218;28;20036;-78
2023/10/05 06:48:50;;;;;;;1.40;1.30;;;;;;;11.81;100.00;102283.97;5055973;28;20048;-78
2023/10/05 06:51:25;;;;;;;1.20;1.10;;;;;;;11.83;100.00;102290.91;5055524;28;20425;-78
2023/10/05 06:53:51;;;;;;;2.03;1.40;;;;;;;11.82;100.00;102294.34;5054957;28;20083;-78
2023/10/05 06:56:18;;;;;;;1.40;1.10;;;;;;;11.87;100.00;102302.19;5055571;28;20057;-78
2023/10/05 06:58:43;;;;;;;0.80;0.80;;;;;;;11.90;100.00;102308.28;5055718;28;20041;-78
2023/10/05 07:01:09;;;;;;;1.17;1.17;;;;;;;11.92;100.00;102307.41;5054801;28;20021;-78
2023/10/05 07:03:35;;;;;;;1.57;1.40;;;;;;;11.96;100.00;102315.22;5055734;28;20481;-78
2023/10/05 07:06:01;;;;;;;3.35;1.40;;;;;;;11.97;100.00;102310.88;5055829;28;20021;-78
2023/10/05 07:08:26;;;;;;;2.20;1.50;;;;;;;12.01;100.00;102317.88;5054813;28;20021;-78
2023/10/05 07:10:52;;;;;;;2.90;1.57;;;;;;;12.06;100.00;102318.72;5055733;28;20024;-78
2023/10/05 07:13:21;;;;;;;2.23;1.43;;;;;;;12.11;100.00;102329.16;5055314;28;20414;-78
2023/10/05 07:15:46;;;;;;;1.63;1.45;;;;;;;12.10;100.00;102323.09;5054741;28;20037;-79
2023/10/05 07:18:12;;;;;;;6.77;2.20;;;;;;;12.17;100.00;102327.44;5055072;28;20389;-78
2023/10/05 07:20:41;;;;;;;4.38;2.08;;;;;;;12.22;100.00;102323.97;5055380;28;20095;-78
2023/10/05 07:23:06;;;;;;;3.58;1.80;;;;;;;12.26;100.00;102328.34;5054540;28;20021;-79
2023/10/05 07:25:33;;;;;;;4.13;2.00;;;;;;;12.32;100.00;102334.41;5055375;28;20109;-78
2023/10/05 07:27:58;;;;;;;2.30;1.77;;;;;;;12.41;100.00;102336.13;5055374;28;20021;-79
2023/10/05 07:30:24;;;;;;;1.87;1.50;;;;;;;12.47;100.00;102336.16;5054558;28;20013;-79
2023/10/05 07:32:49;;;;;;;2.23;1.47;;;;;;;12.56;100.00;102340.50;5055329;28;20032;-79
2023/10/05 07:35:14;;;;;;;2.97;1.70;;;;;;;12.64;100.00;102350.91;5054337;28;20047;-79
2023/10/05 07:37:41;;;;;;;1.70;1.60;;;;;;;12.72;100.00;102353.53;5055576;28;20099;-78
2023/10/05 07:40:07;;;;;;;2.45;1.60;;;;;;;12.79;100.00;102355.25;5055119;28;20021;-79
2023/10/05 07:42:33;;;;;;;4.93;2.10;;;;;;;12.86;100.00;102349.19;5054358;28;20104;-78
2023/10/05 07:44:59;;;;;;;1.80;1.60;;;;;;;12.91;100.00;102350.03;5054873;28;20025;-78
2023/10/05 07:47:24;;;;;;;3.20;1.70;;;;;;;13.02;100.00;102352.66;5054874;28;20073;-79
2023/10/05 07:49:53;;;;;;;1.90;1.50;;;;;;;13.05;100.00;102350.03;5052935;28;20437;-79
2023/10/05 07:52:19;;;;;;;2.65;1.75;;;;;;;13.15;100.00;102361.28;5054588;28;20025;-79
2023/10/05 07:54:45;;;;;;;2.03;1.60;;;;;;;13.23;100.00;102363.91;5053695;28;20083;-79
2023/10/05 07:57:11;;;;;;;3.30;1.57;;;;;;;13.27;100.00;102365.63;5053619;28;20054;-78
2023/10/05 07:59:43;;;;;;;5.20;1.95;;;;;;;13.33;100.00;102363.00;5054648;28;20129;-78
2023/10/05 08:02:13;;;;;;;2.83;1.90;;;;;;;13.41;100.00;102363.03;5054714;28;20029;-79
2023/10/05 08:04:39;;;;;;;4.15;1.95;;;;;;;13.51;100.00;102363.88;5054032;28;20359;-78
2023/10/05 08:07:04;;;;;;;4.67;2.17;;;;;;;13.60;100.00;102369.06;5054400;28;20021;-78
2023/10/05 08:09:30;;;;;;;4.10;2.20;;;;;;;13.66;100.00;102368.16;5053580;28;20084;-78
2023/10/05 08:11:56;;;;;;;3.27;1.90;;;;;;;13.72;100.00;102369.00;5053809;28;20116;-78
2023/10/05 08:14:24;;;;;;;3.47;1.80;;;;;;;13.82;100.00;102371.56;5054098;28;20135;-79
2023/10/05 08:16:49;;;;;;;2.33;1.63;;;;;;;13.94;100.00;102376.75;5054528;28;20025;-79
2023/10/05 08:19:22;;;;;;;1.70;1.33;;;;;;;14.04;100.00;102381.03;5053663;28;20117;-78
2023/10/05 08:21:47;;;;;;;3.08;1.70;;;;;;;14.12;100.00;102380.13;5054507;28;20075;-78
2023/10/05 08:24:14;;;;;;;2.50;1.87;;;;;;;14.19;100.00;102377.47;5053804;28;20036;-78
2023/10/05 08:26:39;;;;;;;3.35;1.67;;;;;;;14.26;100.00;102388.75;5053100;28;20035;-79
2023/10/05 08:29:06;;;;;;;3.70;1.80;;;;;;;14.31;99.37;102392.19;5053771;28;20103;-79
2023/10/05 08:31:31;;;;;;;;;;;;;;;14.35;99.70;102383.47;5053605;28;20071;-78
2023/10/05 08:34:00;;;;;;;2.57;1.80;;;;;;;14.39;99.35;102394.75;5054093;28;19912;-79
2023/10/05 08:36:26;;;;;;;3.47;2.10;;;;;;;14.39;98.18;102389.53;5053869;28;20067;-79
2023/10/05 08:38:54;;;;;;;5.90;2.83;;;;;;;14.43;96.75;102395.59;5053186;28;20028;-78
2023/10/05 08:41:25;;;;;;;3.00;2.05;;;;;;;14.48;97.21;102396.44;5053662;28;20128;-78
2023/10/05 08:43:50;;;;;;;3.15;2.10;;;;;;;14.49;98.08;102396.41;5053866;28;20037;-79
2023/10/05 08:46:19;;;;;;;1.80;1.70;;;;;;;14.50;98.03;102402.53;5052796;28;20025;-79
2023/10/05 08:48:46;;;;;;;2.50;1.90;;;;;;;14.56;97.09;102405.09;5053770;28;20025;-79
2023/10/05 08:51:12;;;;;;;2.20;1.60;;;;;;;14.60;98.08;102409.44;5053438;28;20059;-78
2023/10/05 08:53:59;;;;;;;1.60;1.50;;;;;;;14.66;97.96;102413.75;5052634;28;20056;-79
2023/10/05 08:56:25;;;;;;;4.25;1.70;;;;;;;14.69;97.16;102415.47;5053375;28;20035;-79
2023/10/05 08:58:52;;;;;;;2.63;1.83;;;;;;;14.70;97.05;102414.59;5053644;28;20053;-79
2023/10/05 09:01:20;;;;;;;2.45;1.55;;;;;;;14.72;97.81;102426.78;5052536;28;20437;-77
2023/10/05 09:03:50;;;;;;;1.60;1.50;;;;;;;14.77;97.42;102419.78;5053720;28;20025;-78
2023/10/05 09:06:25;;;;;;;2.35;1.70;;;;;;;14.72;96.23;102418.94;5052578;28;20033;-78
2023/10/05 09:08:53;;;;;;;2.60;1.52;;;;;;;14.80;97.02;102426.72;5052414;28;20031;-78
2023/10/05 09:11:32;;;;;;;1.85;1.50;;;;;;;14.83;95.64;102437.16;5053011;28;20082;-79
2023/10/05 09:14:12;;;;;;;4.10;1.83;;;;;;;14.85;96.55;102438.03;5052706;28;20048;-79
2023/10/05 09:16:42;;;;;;;4.53;1.83;;;;;;;14.88;96.92;102444.97;5053259;28;20044;-78
2023/10/05 09:19:18;;;;;;;4.15;1.98;;;;;;;14.89;95.19;102459.78;5052242;28;20489;-78
2023/10/05 09:21:47;;;;;;;3.63;2.00;;;;;;;14.90;95.70;102462.38;5052585;28;20040;-79
2023/10/05 09:24:20;;;;;;;4.30;2.00;;;;;;;14.90;94.83;102462.38;5052628;28;20025;-79
2023/10/05 09:26:52;;;;;;;4.13;2.13;;;;;;;14.89;94.76;102465.84;5053050;28;20032;-79
2023/10/05 09:29:21;;;;;;;3.22;1.80;;;;;;;14.90;95.09;102461.50;5052128;28;20474;-79
2023/10/05 09:31:51;;;;;;;2.38;1.90;;;;;;;14.92;94.61;102458.00;5052981;28;20075;-79
2023/10/05 09:34:36;;;;;;;3.63;1.85;;;;;;;14.97;95.19;102460.56;5052927;28;20028;-79
2023/10/05 09:37:06;;;;;;;2.17;1.90;;;;;;;15.02;94.77;102471.00;5051107;28;20117;-80
2023/10/05 09:39:49;;;;;;;3.70;2.20;;;;;;;15.00;93.61;102471.03;5053057;28;20029;-79
2023/10/05 09:42:24;;;;;;;3.28;2.00;;;;;;;15.02;94.21;102471.88;5052186;28;20032;-79
2023/10/05 09:44:52;;;;;;;3.07;1.87;;;;;;;15.08;95.04;102469.19;5053086;28;20103;-79
2023/10/05 09:47:20;;;;;;;1.70;1.27;;;;;;;15.16;95.60;102444.72;5052419;28;20361;-80
2023/10/05 09:49:48;;;;;;;1.85;1.48;;;;;;;15.22;95.11;102452.53;5052102;28;20082;-79
2023/10/05 09:52:15;;;;;;;2.15;1.40;;;;;;;15.27;95.45;102455.94;5052405;28;20051;-80
2023/10/05 09:54:42;;;;;;;1.73;1.40;;;;;;;15.31;94.75;102456.81;5052950;28;20381;-79
2023/10/05 09:57:11;;;;;;;;;;;;;;;15.29;92.74;102462.03;5051948;28;20402;-80
2023/10/05 09:59:43;;;;;;;3.83;1.85;;;;;;;15.30;94.82;102461.16;5052524;28;19927;-80
2023/10/05 10:02:16;;;;;;;3.97;2.05;;;;;;;15.34;93.30;102465.50;5052377;28;20477;-80
2023/10/05 10:04:42;;;;;;;2.80;1.80;;;;;;;15.31;93.55;102465.53;5051414;28;20064;-81
2023/10/05 10:07:15;;;;;;;3.78;1.80;;;;;;;15.36;93.38;102466.34;5052343;28;20075;-79
2023/10/05 10:09:43;;;;;;;2.40;1.88;;;;;;;15.41;94.31;102466.31;5052214;28;20540;-79
2023/10/05 10:12:12;;;;;;;2.03;1.65;;;;;;;15.43;nan;102464.53;5033535;28;20414;-80
2023/10/05 10:14:41;;;;;;;3.10;2.10;;;;;;;15.41;92.83;102459.31;5052413;28;20075;-79
2023/10/05 10:17:24;;;;;;;3.10;2.20;;;;;;;15.42;92.61;102462.81;5050987;28;20025;-79
2023/10/05 10:19:55;;;;;;;5.00;2.15;;;;;;;15.43;91.21;102464.53;5056063;28;20394;-80
2023/10/05 10:22:28;;;;;;;2.75;2.00;;;;;;;15.41;92.87;102459.31;5056223;28;20021;-79
2023/10/05 10:24:56;;;;;;;4.40;2.13;;;;;;;15.47;90.78;102463.63;5055760;28;20166;-80
2023/10/05 10:27:27;;;;;;;2.47;1.80;;;;;;;15.51;91.95;102467.94;5056169;28;20103;-79
2023/10/05 10:29:55;;;;;;;2.63;1.90;;;;;;;15.54;92.23;102464.44;5056256;28;20447;-79
2023/10/05 10:32:31;;;;;;;2.28;1.77;;;;;;;15.61;92.80;102455.63;5054613;28;20040;-79
2023/10/05 10:35:10;;;;;;;1.98;1.63;;;;;;;15.71;92.74;102452.00;5056154;28;20021;-79
2023/10/05 10:37:48;;;;;;;1.95;1.50;;;;;;;15.75;92.53;102440.63;5056240;28;20098;-80
2023/10/05 10:45:33;;;;;;;2.67;1.70;;;;;;;16.10;92.04;102458.59;5055291;28;20049;-79
2023/10/05 10:48:08;;;;;;;1.70;1.60;;;;;;;16.17;90.87;102462.84;5055735;28;20029;-79
2023/10/05 10:50:37;;;;;;;3.63;1.90;;;;;;;16.20;90.48;102453.22;5055892;28;20074;-79
2023/10/05 10:53:16;;;;;;;7.30;2.38;;;;;;;16.23;87.01;102449.69;5055088;28;20377;-79
2023/10/05 10:55:45;;;;;;;6.35;2.60;;;;;;;16.33;89.61;102448.69;5055549;28;20086;-79
2023/10/05 10:58:13;;;;;;;5.28;2.20;;;;;;;16.53;90.26;102452.75;5055364;28;20055;-80
2023/10/05 11:03:12;;;;;;;1.92;1.70;;;;;;;16.96;89.71;102443.41;5055340;28;20036;-79
2023/10/05 11:05:47;;;;;;;1.77;1.50;;;;;;;17.12;90.07;102441.38;5055948;28;20037;-80
2023/10/05 11:08:20;;;;;;;2.40;1.55;;;;;;;17.29;87.60;102438.47;5054492;28;20028;-80
2023/10/05 11:11:15;;;;;;;1.70;1.60;;;;;;;17.42;88.28;102436.47;5055108;28;20032;-80
2023/10/05 11:14:00;;;;;;;3.40;1.65;;;;;;;17.55;88.00;102447.63;5054626;28;20021;-80
2023/10/05 11:16:45;;;;;;;5.03;2.00;;;;;;;17.60;87.73;102440.50;5054036;28;20406;-79
2023/10/05 11:19:14;;;;;;;2.70;1.70;;;;;;;17.71;86.61;102441.16;5055177;28;20350;-79
2023/10/05 11:21:46;;;;;;;3.35;1.67;;;;;;;17.83;86.63;102444.44;5054011;28;20025;-80
2023/10/05 11:24:15;;;;;;;1.73;1.40;;;;;;;17.90;86.34;102448.69;5035435;28;20072;-79
2023/10/05 11:27:05;;;;;;;2.70;2.00;;;;;;;17.93;84.65;102447.75;5035452;28;20074;-79
2023/10/05 11:29:29;;;;;;;2.35;1.60;;;;;;;17.93;85.04;102442.50;5033955;28;20095;-80
2023/10/05 11:32:03;;;;;;;3.70;1.70;;;;;;;18.03;85.36;102441.44;5035255;28;20018;-80
2023/10/05 11:34:29;;;;;;;3.55;2.00;;;;;;;18.06;82.95;102436.97;5034398;28;20095;-80
2023/10/05 11:36:58;;;;;;;5.00;2.30;;;;;;;18.10;79.97;102440.38;5035231;28;20075;-79
2023/10/05 11:39:38;;;;;;;3.85;2.15;;;;;;;18.14;83.13;102439.44;5034913;28;20026;-79
2023/10/05 11:42:08;;;;;;;3.75;2.10;;;;;;;18.25;82.05;102438.34;5034114;28;20037;-80
2023/10/05 11:44:34;;;;;;;4.35;1.90;;;;;;;18.25;82.36;102438.34;5035049;28;20068;-80
2023/10/05 11:47:00;;;;;;;;;;;;;;;18.29;81.48;102432.13;5035476;28;20067;-80
2023/10/05 11:49:31;;;;;;;2.43;1.83;;;;;;;18.29;83.81;102435.59;5037355;28;20324;-80
2023/10/05 11:51:57;;;;;;;2.95;1.80;;;;;;;18.43;82.35;102432.66;5054723;28;20024;-80
2023/10/05 11:54:30;;;;;;;1.42;1.33;;;;;;;18.44;79.87;102434.38;5054484;28;20067;-80
2023/10/05 11:56:56;;;;;;;3.33;1.85;;;;;;;18.35;80.85;102429.34;5053997;28;20021;-80
2023/10/05 11:59:28;;;;;;;2.33;1.80;;;;;;;18.16;77.84;102434.13;5054056;28;20513;-79
2023/10/05 12:01:54;;;;;;;3.33;1.88;;;;;;;18.01;79.61;102430.09;5054717;28;20029;-79